Karen Ann — WDH3163 — position and weather

sailwx.info

Track history (hours):
 
Tides and Currents Weather Stations Pressure Air Temp Water Temp Dewpoint Dewpoint Depression Visibility Wind Speed Wind Dir Waves Ship Positions

Karen Ann

Owner: LeBeouf Bros. Towing, LLC, Houma, LA. More information available from US FCC via Universal Licensing System and Coast Guard Vessel Documentation Center.

Last reported at 2018-Feb-22 20:21 UTC. Time now 2018-Feb-22 21:00 UTC.
Position N 38°38' W 090°11'.

Length 34 m; draft 2.9 m.

Type: Towing. MMSI: 367604920.

Date/timePositionNaut miles runAvg speedWind from/ knotsBaromVisibWave heightAir tempDewpointWater temp
2018-Feb-22 20:21N 38°38' W 090°11'  
2018-Feb-14 22:52N 32°36' W 091°08'2 4.4
2018-Feb-14 22:31N 32°35' W 091°07'5 4.6
2018-Feb-14 21:27N 32°30' W 091°07'2 4.8
2018-Feb-14 21:00N 32°28' W 091°06'3 4.9
2018-Feb-14 20:30N 32°26' W 091°03'2 4.5
2018-Feb-14 20:00N 32°26' W 091°01'2 4.2
2018-Feb-14 19:30N 32°24' W 090°59'2 4.4
2018-Feb-14 19:00N 32°22' W 091°00'2 4.1
2018-Feb-14 18:31N 32°21' W 090°58'2 4.8
2018-Feb-14 18:00N 32°21' W 090°55'2 3.7
2018-Feb-14 17:31N 32°19' W 090°54'2 4.3
2018-Feb-14 17:01N 32°18' W 090°56'2 4.9
2018-Feb-14 16:31N 32°16' W 090°58'2 3.3
2018-Feb-14 16:00N 32°14' W 090°59'2 4.6
2018-Feb-14 15:30N 32°12' W 090°59'3 5.1
2018-Feb-14 15:01N 32°10' W 091°00'2 4.3
2018-Feb-14 14:31N 32°08' W 091°01'2 4.1
2018-Feb-14 14:00N 32°07' W 091°03'2 3.7
2018-Feb-14 13:22N 32°08' W 091°06'2 4.1
2018-Feb-14 12:59N 32°06' W 091°06'  
Track history (hours):
 
Tides and Currents Weather Stations Pressure Air Temp Water Temp Dewpoint Dewpoint Depression Visibility Wind Speed Wind Dir Waves Ship Positions

Karen Ann

Owner: LeBeouf Bros. Towing, LLC, Houma, LA. More information available from US FCC via Universal Licensing System and Coast Guard Vessel Documentation Center.

Last reported at 2018-Feb-22 20:21 UTC. Time now 2018-Feb-22 21:00 UTC.
Position N 38°38' W 090°11'.

Length 34 m; draft 2.9 m.

Type: Towing. MMSI: 367604920.

Date/timePositionNaut miles runAvg speedWind from/ knotsBaromVisibWave heightAir tempDewpointWater temp
2018-Feb-22 20:21N 38°38' W 090°11'  
2018-Feb-14 22:52N 32°36' W 091°08'2 4.4
2018-Feb-14 22:31N 32°35' W 091°07'5 4.6
2018-Feb-14 21:27N 32°30' W 091°07'2 4.8
2018-Feb-14 21:00N 32°28' W 091°06'3 4.9
2018-Feb-14 20:30N 32°26' W 091°03'2 4.5
2018-Feb-14 20:00N 32°26' W 091°01'2 4.2
2018-Feb-14 19:30N 32°24' W 090°59'2 4.4
2018-Feb-14 19:00N 32°22' W 091°00'2 4.1
2018-Feb-14 18:31N 32°21' W 090°58'2 4.8
2018-Feb-14 18:00N 32°21' W 090°55'2 3.7
2018-Feb-14 17:31N 32°19' W 090°54'2 4.3
2018-Feb-14 17:01N 32°18' W 090°56'2 4.9
2018-Feb-14 16:31N 32°16' W 090°58'2 3.3
2018-Feb-14 16:00N 32°14' W 090°59'2 4.6
2018-Feb-14 15:30N 32°12' W 090°59'3 5.1
2018-Feb-14 15:01N 32°10' W 091°00'2 4.3
2018-Feb-14 14:31N 32°08' W 091°01'2 4.1
2018-Feb-14 14:00N 32°07' W 091°03'2 3.7
2018-Feb-14 13:22N 32°08' W 091°06'2 4.1
2018-Feb-14 12:59N 32°06' W 091°06'  

Dump ship's entire track history